Time;durP1;ratioP1;P1;durP2;ratioP2;P2;SDS_P1;SDS_P2;PMS_P1;PMS_P2;Temp;Humidity;BMP_temperature;BMP_pressure;BME280_temperature;BME280_humidity;BME280_pressure;Samples;Min_cycle;Max_cycle;Signal;HPM_P1;HPM_P2
2023/06/01 00:00:20;;;;;;;11.33;5.33;;;15.90;72.40;;;18.84;49.40;102233.97;5055293;28;20221;-65
2023/06/01 00:02:49;;;;;;;9.40;5.17;;;15.90;72.50;;;18.78;49.38;102232.06;5054681;28;20662;-65
2023/06/01 00:05:16;;;;;;;8.20;4.73;;;15.80;72.40;;;18.76;49.38;102230.59;5054954;28;20252;-66
2023/06/01 00:07:43;;;;;;;8.40;5.10;;;15.80;72.60;;;18.73;49.71;102237.13;5054971;28;20186;-66
2023/06/01 00:10:12;;;;;;;10.00;5.07;;;15.80;72.90;;;18.75;49.89;102229.81;5055212;28;20214;-66
2023/06/01 00:12:39;;;;;;;10.20;4.53;;;15.80;73.10;;;18.76;49.79;102220.75;5053010;28;20674;-67
2023/06/01 00:15:07;;;;;;;11.57;6.13;;;15.80;73.40;;;18.76;50.03;102231.44;5054158;28;20628;-65
2023/06/01 00:17:35;;;;;;;11.23;5.57;;;15.80;73.60;;;18.72;50.09;102226.66;5054732;28;20186;-67
2023/06/01 00:20:08;;;;;;;9.87;5.63;;;15.80;73.80;;;18.69;50.27;102233.22;5053893;28;20204;-65
2023/06/01 00:22:38;;;;;;;9.57;5.23;;;15.80;74.10;;;18.66;50.54;102230.91;5054622;28;20554;-66
2023/06/01 00:25:07;;;;;;;13.87;5.20;;;15.70;74.40;;;18.62;50.50;102229.66;5053248;28;20218;-66
2023/06/01 00:27:36;;;;;;;11.80;5.73;;;15.70;74.70;;;18.61;50.79;102225.31;5054560;28;20193;-66
2023/06/01 00:30:04;;;;;;;8.30;5.70;;;15.60;74.70;;;18.61;50.89;102229.84;5047722;28;20305;-66
2023/06/01 00:32:32;;;;;;;10.33;5.10;;;15.70;75.00;;;18.59;50.84;102226.56;5034535;28;20289;-66
2023/06/01 00:34:59;;;;;;;11.00;5.53;;;15.60;74.90;;;18.59;50.97;102223.91;5034222;28;20217;-67
2023/06/01 00:37:26;;;;;;;9.20;4.83;;;15.60;75.00;;;18.61;51.03;102217.31;5034717;28;20269;-70
2023/06/01 00:39:53;;;;;;;7.27;4.50;;;15.60;75.20;;;18.63;51.12;102215.31;5034612;28;20191;-67
2023/06/01 00:42:20;;;;;;;9.73;5.10;;;15.70;75.50;;;18.67;51.28;102221.91;5034414;28;20301;-66
2023/06/01 00:44:48;;;;;;;10.60;5.00;;;15.70;75.80;;;18.69;51.55;102214.53;5034271;28;20278;-67
2023/06/01 00:47:15;;;;;;;9.40;4.73;;;15.70;76.30;;;18.68;51.81;102218.25;5035451;28;20547;-67
2023/06/01 00:49:43;;;;;;;14.60;5.50;;;15.70;76.60;;;18.66;51.95;102212.25;5034453;28;20651;-66
2023/06/01 00:52:10;;;;;;;9.37;4.97;;;15.70;76.80;;;18.65;52.18;102209.78;5034149;28;20209;-67
2023/06/01 00:54:37;;;;;;;7.93;4.80;;;15.60;76.90;;;18.64;52.20;102218.78;5033848;28;20222;-66
2023/06/01 00:57:06;;;;;;;9.40;4.93;;;15.60;77.40;;;18.62;52.53;102215.50;5034209;28;20244;-66
2023/06/01 00:59:34;;;;;;;7.53;5.20;;;15.60;77.70;;;18.56;52.73;102221.59;5034344;28;20222;-66
2023/06/01 01:02:04;;;;;;;8.40;4.90;;;15.50;78.20;;;18.51;53.07;102216.84;5046788;28;20228;-66
2023/06/01 01:04:32;;;;;;;8.70;5.10;;;15.50;78.40;;;18.49;53.11;102218.88;5039621;28;20265;-67
2023/06/01 01:07:20;;;;;;;6.80;5.43;;;15.50;78.30;;;18.47;52.94;102212.88;5033932;28;20588;-67
2023/06/01 01:09:58;;;;;;;7.23;5.40;;;15.60;78.30;;;18.44;53.19;102215.91;5034270;28;20209;-65
2023/06/01 01:12:33;;;;;;;8.93;4.90;;;15.50;78.40;;;18.45;53.05;102212.22;5034176;28;20179;-64
2023/06/01 01:15:08;;;;;;;8.67;5.10;;;15.50;78.40;;;18.44;52.97;102210.59;5042873;28;20245;-67
2023/06/01 01:17:42;;;;;;;10.50;6.07;;;15.50;78.30;;;18.46;53.01;102208.56;5054235;28;20232;-66
2023/06/01 01:20:17;;;;;;;10.70;6.83;;;15.50;78.50;;;18.46;53.15;102211.25;5049488;28;20247;-66
2023/06/01 01:23:05;;;;;;;8.03;6.10;;;15.50;78.50;;;18.40;53.25;102203.16;5033825;28;20179;-67
2023/06/01 01:26:10;;;;;;;11.27;5.80;;;15.40;78.80;;;18.32;53.51;102201.44;5033588;28;20313;-65
2023/06/01 01:28:46;;;;;;;11.93;5.50;;;15.40;78.90;;;18.36;53.51;102199.19;5033639;28;20269;-66
2023/06/01 01:31:20;;;;;;;9.07;5.60;;;15.40;79.00;;;18.39;53.41;102201.50;5034149;28;20618;-66
2023/06/01 01:33:51;;;;;;;12.43;5.73;;;15.40;78.70;;;18.37;53.24;102198.19;5033483;28;20198;-66
2023/06/01 01:36:18;;;;;;;6.87;4.90;;;15.40;78.90;;;18.34;53.30;102194.06;5033519;28;20220;-66
2023/06/01 01:38:47;;;;;;;9.33;5.10;;;15.40;79.40;;;18.33;53.26;102197.72;5050108;28;20193;-68
2023/06/01 01:41:14;;;;;;;6.73;4.83;;;15.40;78.60;;;18.32;53.29;102196.09;5053374;28;20216;-65
2023/06/01 01:43:43;;;;;;;6.90;4.70;;;15.30;78.80;;;18.31;53.62;102199.75;5053316;28;20181;-66
2023/06/01 01:46:22;;;;;;;7.67;5.10;;;15.30;79.10;;;18.32;53.58;102196.09;5053346;28;20214;-66
2023/06/01 01:49:00;;;;;;;8.17;4.77;;;15.40;79.10;;;18.35;53.51;102194.91;5052231;28;20280;-67
2023/06/01 01:51:37;;;;;;;9.00;5.30;;;15.40;79.20;;;18.36;53.46;102196.53;5053540;28;20217;-66
2023/06/01 01:54:07;;;;;;;11.23;5.03;;;15.40;79.20;;;18.38;53.61;102198.00;5051307;28;20221;-66
2023/06/01 01:56:37;;;;;;;5.07;4.00;;;15.40;78.90;;;18.37;53.08;102193.69;5053450;28;20243;-66
2023/06/01 01:59:05;;;;;;;6.80;3.67;;;15.40;78.30;;;18.36;52.96;102189.38;5053225;28;20223;-67
2023/06/01 02:01:33;;;;;;;7.57;4.40;;;15.30;78.20;;;18.37;52.93;102192.84;5053295;28;20216;-66
2023/06/01 02:04:04;;;;;;;7.47;4.30;;;15.40;78.20;;;18.38;53.03;102184.66;5052478;28;20206;-65
2023/06/01 02:06:32;;;;;;;7.73;3.97;;;15.40;78.10;;;18.37;52.76;102185.69;5053151;28;20615;-67
2023/06/01 02:08:59;;;;;;;8.37;4.03;;;15.40;78.10;;;18.38;52.97;102184.66;5053055;28;20554;-66
2023/06/01 02:11:26;;;;;;;7.10;4.37;;;15.40;78.00;;;18.40;52.89;102184.50;5046289;28;20611;-66
2023/06/01 02:13:53;;;;;;;10.77;4.20;;;15.40;77.80;;;18.43;52.64;102184.91;5052500;28;20186;-66
2023/06/01 02:16:21;;;;;;;7.07;4.33;;;15.40;77.60;;;18.44;52.27;102172.41;5046324;28;20232;-66
2023/06/01 02:18:49;;;;;;;8.00;4.10;;;15.40;77.10;;;18.43;52.40;102182.25;5052984;28;20190;-66
2023/06/01 02:21:17;;;;;;;7.83;4.03;;;15.40;77.30;;;18.40;52.31;102182.63;5053141;28;20205;-66
2023/06/01 02:23:44;;;;;;;10.23;4.83;;;15.40;77.20;;;18.40;52.22;102177.28;5052670;28;20240;-66
2023/06/01 02:26:11;;;;;;;7.80;4.00;;;15.40;77.00;;;18.41;52.17;102168.28;5052739;28;20818;-65
2023/06/01 02:28:40;;;;;;;9.43;4.03;;;15.40;76.90;;;18.45;52.04;102174.88;5039533;28;20186;-65
2023/06/01 02:31:07;;;;;;;6.63;3.67;;;15.50;77.00;;;18.47;52.29;102167.53;5032878;28;20198;-66
2023/06/01 02:33:37;;;;;;;6.90;4.17;;;15.50;77.10;;;18.45;51.91;102174.88;5032731;28;20679;-66
2023/06/01 02:36:05;;;;;;;5.43;3.50;;;15.40;76.50;;;18.41;52.00;102168.28;5033072;28;20214;-65
2023/06/01 02:38:32;;;;;;;8.00;3.70;;;15.40;76.60;;;18.39;52.03;102169.50;5033074;28;20206;-64
2023/06/01 02:40:59;;;;;;;6.83;3.00;;;15.40;76.70;;;18.39;51.85;102173.00;5032998;28;20293;-65
2023/06/01 02:43:26;;;;;;;5.10;3.53;;;15.40;76.60;;;18.40;51.94;102169.28;5032949;28;20565;-65
2023/06/01 02:45:53;;;;;;;8.20;3.53;;;15.40;76.70;;;18.41;52.01;102170.13;5050877;28;20210;-66
2023/06/01 02:48:21;;;;;;;12.80;3.83;;;15.40;76.60;;;18.42;51.78;102169.97;5058455;28;20213;-66
2023/06/01 02:50:49;;;;;;;9.80;3.83;;;15.50;76.60;;;18.43;51.67;102166.25;5058401;28;20293;-66
2023/06/01 02:53:16;;;;;;;7.13;3.67;;;15.50;76.50;;;18.44;52.00;102162.59;5058033;28;20273;-69
2023/06/01 02:55:43;;;;;;;12.80;4.20;;;15.50;76.70;;;18.47;51.80;102161.41;5058666;28;20268;-66
2023/06/01 02:58:16;;;;;;;7.13;3.83;;;15.50;76.70;;;18.49;51.71;102162.03;5057953;28;20213;-67
2023/06/01 03:00:43;;;;;;;8.10;3.60;;;15.50;76.60;;;18.52;51.94;102165.13;5058699;28;20194;-66
2023/06/01 03:03:10;;;;;;;9.13;4.50;;;15.60;76.60;;;18.56;51.76;102169.09;5060824;28;20717;-67
2023/06/01 03:05:37;;;;;;;6.07;3.30;;;15.60;76.50;;;18.61;51.70;102169.31;5062101;28;20612;-68
2023/06/01 03:08:06;;;;;;;7.60;3.67;;;15.60;76.40;;;18.64;51.56;102168.94;5053995;28;20270;-66
2023/06/01 03:10:33;;;;;;;4.97;3.67;;;15.60;76.20;;;18.67;51.42;102162.41;5041018;28;20187;-67
2023/06/01 03:13:00;;;;;;;6.97;3.63;;;15.60;76.00;;;18.68;51.40;102164.91;5041254;28;20270;-68
2023/06/01 03:15:27;;;;;;;7.53;3.60;;;15.70;75.90;;;18.70;51.33;102159.34;5053257;28;20693;-66
2023/06/01 03:17:54;;;;;;;5.77;3.20;;;15.70;75.80;;;18.67;51.17;102163.22;5058012;28;20206;-66
2023/06/01 03:20:22;;;;;;;8.10;3.73;;;15.60;75.60;;;18.65;51.00;102159.94;5055163;28;20198;-66
2023/06/01 03:22:49;;;;;;;6.60;3.63;;;15.60;75.30;;;18.62;51.03;102160.31;5055433;28;20210;-65
2023/06/01 03:25:17;;;;;;;8.50;4.50;;;15.60;75.20;;;18.60;50.96;102159.69;5055870;28;20229;-66
2023/06/01 03:27:45;;;;;;;6.00;4.47;;;15.60;75.10;;;18.59;50.99;102160.69;5055959;28;20297;-66
2023/06/01 03:30:13;;;;;;;8.70;5.03;;;15.60;75.00;;;18.54;50.75;102152.44;5055769;28;20256;-65
2023/06/01 03:32:42;;;;;;;11.40;4.73;;;15.50;74.90;;;18.51;50.62;102160.00;5055806;28;20186;-66
2023/06/01 03:35:11;;;;;;;12.27;5.07;;;15.50;74.60;;;18.47;50.57;102151.53;5055436;28;20259;-65
2023/06/01 03:37:40;;;;;;;7.03;3.87;;;15.50;74.60;;;18.42;50.52;102159.28;5055686;28;20705;-65
2023/06/01 03:40:11;;;;;;;9.70;5.00;;;15.40;74.60;;;18.39;50.61;102159.66;5055801;28;20217;-66
2023/06/01 03:42:43;;;;;;;8.03;4.33;;;15.40;74.60;;;18.36;50.74;102149.38;5055313;28;20214;-64
2023/06/01 03:45:12;;;;;;;9.13;4.47;;;15.40;74.70;;;18.34;50.48;102162.06;5043069;28;20683;-64
2023/06/01 03:47:40;;;;;;;6.30;3.37;;;15.30;74.60;;;18.31;50.65;102151.78;5035337;28;20682;-65
2023/06/01 03:50:09;;;;;;;8.50;4.53;;;15.30;74.60;;;18.27;50.52;102139.84;5035263;28;20659;-65
2023/06/01 03:52:37;;;;;;;11.67;4.80;;;15.30;74.60;;;18.25;50.43;102141.88;5035137;28;20659;-64
2023/06/01 03:55:10;;;;;;;9.23;4.40;;;15.30;74.70;;;18.26;50.77;102147.03;5034433;28;20211;-66
2023/06/01 03:57:37;;;;;;;11.73;4.20;;;15.30;74.80;;;18.30;50.80;102139.47;5034790;28;20257;-67
2023/06/01 04:00:20;;;;;;;9.93;4.70;;;15.30;74.90;;;18.32;50.66;102142.78;5050836;28;20201;-66
2023/06/01 04:02:49;;;;;;;10.87;5.37;;;15.30;74.70;;;18.33;50.67;102133.75;5054518;28;20241;-66
2023/06/01 04:05:17;;;;;;;7.60;4.77;;;15.30;74.80;;;18.33;50.66;102139.06;5044324;28;20245;-67
2023/06/01 04:07:45;;;;;;;10.10;5.27;;;15.30;74.80;;;18.36;50.64;102137.88;5034693;28;20240;-66
2023/06/01 04:10:13;;;;;;;7.90;4.33;;;15.40;74.80;;;18.36;50.67;102136.03;5034984;28;20221;-65
2023/06/01 04:12:42;;;;;;;12.30;4.80;;;15.40;74.70;;;18.38;50.69;102139.34;5036372;28;20183;-66
2023/06/01 04:15:12;;;;;;;6.50;4.57;;;15.40;74.90;;;18.38;50.49;102142.00;5050942;28;20289;-64
2023/06/01 04:17:42;;;;;;;8.27;4.80;;;15.40;74.70;;;18.40;50.63;102137.28;5054824;28;20184;-67
2023/06/01 04:20:11;;;;;;;12.93;5.17;;;15.40;74.70;;;18.42;50.65;102131.78;5054299;28;20202;-68
2023/06/01 04:22:40;;;;;;;10.30;4.77;;;15.40;74.70;;;18.44;50.66;102135.91;5054687;28;20696;-67
2023/06/01 04:25:11;;;;;;;7.50;4.67;;;15.40;74.90;;;18.44;50.36;102130.59;5054561;28;20214;-64
2023/06/01 04:27:44;;;;;;;8.77;3.83;;;15.40;74.90;;;18.46;50.67;102133.91;5053844;28;20205;-66
2023/06/01 04:30:15;;;;;;;10.90;5.13;;;15.50;75.00;;;18.46;50.73;102138.41;5054303;28;20279;-66
2023/06/01 04:32:47;;;;;;;9.20;4.43;;;15.50;75.10;;;18.46;50.87;102138.41;5054234;28;20194;-65
2023/06/01 04:35:15;;;;;;;9.50;4.40;;;15.40;75.20;;;18.43;51.19;102136.09;5054233;28;20209;-67
2023/06/01 04:37:43;;;;;;;9.10;4.33;;;15.40;75.20;;;18.41;50.84;102136.28;5054407;28;20244;-66
2023/06/01 04:40:12;;;;;;;5.70;3.80;;;15.40;75.20;;;18.39;51.09;102127.66;5054098;28;20481;-67
2023/06/01 04:42:42;;;;;;;5.60;3.87;;;15.40;75.40;;;18.42;51.38;102132.63;5053258;28;20220;-67
2023/06/01 04:45:11;;;;;;;8.90;4.10;;;15.40;75.40;;;18.43;50.99;102123.59;5054572;28;20217;-66
2023/06/01 04:47:40;;;;;;;12.03;4.10;;;15.40;75.60;;;18.42;51.10;102126.47;5052554;28;20288;-66
2023/06/01 04:50:10;;;;;;;7.03;3.53;;;15.40;75.70;;;18.42;51.06;102135.28;5052467;28;20205;-64
2023/06/01 04:52:38;;;;;;;6.73;3.90;;;15.40;75.80;;;18.44;51.07;102133.25;5054001;28;20273;-65
2023/06/01 04:55:07;;;;;;;9.93;4.57;;;15.40;75.90;;;18.45;51.40;102132.22;5053824;28;20212;-67
2023/06/01 04:57:35;;;;;;;7.33;3.90;;;15.40;76.20;;;18.45;51.49;102128.72;5037687;28;20587;-67
2023/06/01 05:00:07;;;;;;;5.23;3.30;;;15.40;76.30;;;18.45;51.49;102132.22;5036585;28;20209;-67
2023/06/01 05:02:34;;;;;;;5.47;4.00;;;15.50;76.30;;;18.43;51.65;102123.59;5053508;28;20234;-65
2023/06/01 05:05:04;;;;;;;8.57;4.00;;;15.50;76.60;;;18.45;51.67;102116.22;5053107;28;20268;-65
2023/06/01 05:07:31;;;;;;;6.93;4.70;;;15.40;76.80;;;18.44;52.07;102114.59;5053309;28;20277;-66
2023/06/01 05:10:03;;;;;;;8.27;4.00;;;15.40;76.90;;;18.44;51.98;102117.25;5051901;28;20221;-66
2023/06/01 05:12:30;;;;;;;5.70;3.60;;;15.40;77.10;;;18.47;52.16;102119.53;5053887;28;20277;-66
2023/06/01 05:14:57;;;;;;;6.73;3.83;;;15.40;77.20;;;18.50;52.09;102116.50;5052412;28;20222;-66
2023/06/01 05:17:24;;;;;;;7.37;3.93;;;15.50;77.20;;;18.53;52.08;102113.47;5053161;28;20196;-67
2023/06/01 05:19:51;;;;;;;6.60;3.63;;;15.50;77.30;;;18.55;52.10;102106.09;5053045;28;20202;-65
2023/06/01 05:22:20;;;;;;;9.17;3.43;;;15.50;77.40;;;18.60;52.02;102108.16;5053622;28;20773;-67
2023/06/01 05:24:47;;;;;;;4.23;3.00;;;15.50;77.20;;;18.60;52.06;102106.34;5049579;28;20662;-66
2023/06/01 05:27:14;;;;;;;9.87;4.00;;;15.50;77.00;;;18.61;51.96;102094.63;5032802;28;20278;-68
2023/06/01 05:29:41;;;;;;;6.33;3.23;;;15.50;77.20;;;18.62;52.21;102106.97;5033076;28;20241;-65
2023/06/01 05:32:08;;;;;;;8.47;3.73;;;15.60;77.40;;;18.66;52.25;102100.22;5033389;28;20655;-67
2023/06/01 05:34:36;;;;;;;9.97;5.50;;;15.60;77.80;;;18.71;52.34;102107.63;5032863;28;20653;-66
2023/06/01 05:37:03;;;;;;;5.63;3.63;;;15.60;78.00;;;18.75;52.50;102101.75;5033064;28;20183;-66
2023/06/01 05:39:32;;;;;;;6.50;3.70;;;15.70;78.20;;;18.77;52.65;102105.03;5039785;28;20681;-67
2023/06/01 05:41:59;;;;;;;5.57;3.70;;;15.70;78.40;;;18.77;52.59;102107.69;5053491;28;20228;-67
2023/06/01 05:44:26;;;;;;;6.10;3.63;;;15.70;78.60;;;18.75;52.72;102115.06;5052473;28;20213;-66
2023/06/01 05:46:53;;;;;;;8.90;3.60;;;15.70;78.80;;;18.75;52.70;102112.41;5052957;28;20190;-67
2023/06/01 05:49:20;;;;;;;7.10;4.20;;;15.70;78.80;;;18.75;52.83;102112.41;5052502;28;20534;-66
2023/06/01 05:51:47;;;;;;;7.60;5.60;;;15.70;78.80;;;18.75;52.90;102111.59;5052935;28;20186;-65
2023/06/01 05:54:14;;;;;;;6.83;3.33;;;15.70;79.00;;;18.78;53.31;102111.16;5041916;28;20293;-67
2023/06/01 05:56:44;;;;;;;6.70;3.50;;;15.70;79.10;;;18.79;52.70;102113.66;5038318;28;20274;-66
2023/06/01 05:59:11;;;;;;;6.67;3.27;;;15.70;79.10;;;18.82;52.97;102117.78;5053215;28;20677;-66
2023/06/01 06:01:38;;;;;;;6.37;3.60;;;15.70;79.20;;;18.84;53.17;102113.91;5052460;28;20217;-67
2023/06/01 06:04:05;;;;;;;7.03;3.83;;;15.80;80.20;;;18.85;53.08;102110.19;5052097;28;20205;-66
2023/06/01 06:06:33;;;;;;;7.37;3.73;;;15.80;79.60;;;18.85;53.28;102112.88;5052448;28;20268;-65
2023/06/01 06:09:00;;;;;;;7.53;3.47;;;15.80;79.80;;;18.87;53.28;102113.50;5051762;28;20254;-67
2023/06/01 06:11:27;;;;;;;7.23;3.63;;;15.80;79.40;;;18.89;53.47;102108.81;5052381;28;20198;-64
2023/06/01 06:13:55;;;;;;;5.27;3.27;;;15.80;79.60;;;18.97;53.46;102101.69;5051725;28;20237;-68
2023/06/01 06:16:22;;;;;;;5.23;3.73;;;15.90;79.60;;;19.00;53.08;102103.94;5052147;28;20229;-66
2023/06/01 06:18:50;;;;;;;5.57;3.30;;;15.90;79.40;;;19.02;53.03;102107.25;5051944;28;20273;-68
2023/06/01 06:21:17;;;;;;;6.77;3.07;;;15.90;79.40;;;18.99;53.26;102103.13;5053425;28;20578;-66
2023/06/01 06:23:45;;;;;;;7.80;3.40;;;15.90;79.50;;;19.03;53.25;102098.22;5055335;28;20244;-66
2023/06/01 06:26:12;;;;;;;6.47;3.80;;;15.90;79.40;;;19.05;52.84;102110.34;5056688;28;20308;-66
2023/06/01 06:28:39;;;;;;;4.13;3.20;;;15.90;78.90;;;19.05;52.81;102112.19;5056323;28;20222;-68
2023/06/01 06:31:07;;;;;;;4.30;3.40;;;16.00;79.10;;;19.04;52.75;102113.22;5056359;28;20225;-67
2023/06/01 06:33:35;;;;;;;6.23;4.23;;;15.90;78.70;;;19.01;52.94;102116.25;5055965;28;20265;-67
2023/06/01 06:36:03;;;;;;;6.23;4.17;;;15.90;78.50;;;19.03;52.65;102108.88;5055891;28;20205;-66
2023/06/01 06:38:30;;;;;;;8.80;3.87;;;15.90;78.50;;;19.05;52.34;102109.50;5055661;28;20261;-67
2023/06/01 06:40:57;;;;;;;7.90;4.67;;;16.00;78.20;;;19.05;52.08;102105.00;5056338;28;20228;-66
2023/06/01 06:43:24;;;;;;;5.40;3.23;;;15.90;77.50;;;19.06;51.98;102113.84;5039733;28;20293;-66
2023/06/01 06:45:51;;;;;;;8.00;4.00;;;15.90;77.30;;;19.05;51.79;102114.84;5035973;28;20301;-65
2023/06/01 06:48:20;;;;;;;6.63;4.00;;;15.90;77.10;;;19.05;51.76;102112.19;5036569;28;20679;-65
2023/06/01 06:50:47;;;;;;;6.93;4.70;;;15.90;77.10;;;19.06;51.79;102113.84;5037374;28;20232;-67
2023/06/01 06:53:14;;;;;;;8.07;3.87;;;16.00;77.00;;;19.07;51.67;102107.47;5056142;28;20679;-64
2023/06/01 06:55:42;;;;;;;4.20;3.80;;;16.00;76.80;;;19.08;51.42;102119.81;5055769;28;20216;-65
2023/06/01 06:58:10;;;;;;;7.67;4.10;;;16.00;76.70;;;19.09;51.47;102116.91;5056142;28;20270;-66
2023/06/01 07:00:37;;;;;;;4.40;3.63;;;16.00;76.60;;;19.09;51.26;102113.44;5038045;28;20202;-66
2023/06/01 07:03:05;;;;;;;7.47;4.33;;;16.00;76.60;;;19.10;51.36;102117.75;5054591;28;20209;-65
2023/06/01 07:05:34;;;;;;;5.47;3.80;;;16.00;76.70;;;19.09;51.31;102122.25;5055472;28;20641;-66
2023/06/01 07:08:01;;;;;;;7.57;3.43;;;16.00;77.30;;;19.10;51.59;102123.09;5055602;28;20190;-67
2023/06/01 07:10:28;;;;;;;6.23;4.43;;;16.00;77.00;;;19.13;51.56;102122.72;5054558;28;20190;-66
2023/06/01 07:12:55;;;;;;;6.97;3.40;;;16.00;77.10;;;19.17;51.65;102123.94;5055267;28;20193;-65
2023/06/01 07:15:22;;;;;;;6.23;3.57;;;16.00;77.10;;;19.17;51.62;102122.13;5048101;28;20218;-68
2023/06/01 07:17:49;;;;;;;7.83;4.40;;;16.00;77.00;;;19.16;51.36;102119.66;5054938;28;20650;-67
2023/06/01 07:20:16;;;;;;;4.73;3.60;;;16.10;76.80;;;19.16;51.52;102114.31;5054933;28;20202;-66
2023/06/01 07:22:44;;;;;;;6.93;3.80;;;16.10;76.90;;;19.20;51.45;102115.56;5055353;28;20217;-67
2023/06/01 07:25:15;;;;;;;5.97;3.57;;;16.10;76.80;;;19.24;51.41;102116.81;5054639;28;20214;-67
2023/06/01 07:27:43;;;;;;;4.60;3.27;;;16.10;76.70;;;19.28;50.96;102118.09;5055052;28;20284;-66
2023/06/01 07:30:12;;;;;;;3.67;3.13;;;16.20;76.50;;;19.30;51.09;102122.16;5054492;28;20197;-67
2023/06/01 07:32:39;;;;;;;4.83;3.30;;;16.20;75.90;;;19.32;50.98;102124.66;5054819;28;20208;-66
2023/06/01 07:35:08;;;;;;;5.13;3.33;;;16.20;75.70;;;19.32;50.53;102122.00;5054215;28;20236;-67
2023/06/01 07:37:35;;;;;;;12.27;9.77;;;16.20;75.80;;;19.33;50.90;102120.94;5055040;28;20198;-66
2023/06/01 07:40:06;;;;;;;8.80;4.33;;;16.20;75.90;;;19.39;50.82;102125.56;5053765;28;20182;-67
2023/06/01 07:42:34;;;;;;;7.27;3.73;;;16.30;76.30;;;19.49;50.86;102118.81;5054943;28;20221;-66
2023/06/01 07:45:02;;;;;;;6.10;3.40;;;16.40;75.90;;;19.54;50.40;102119.03;5053654;28;20198;-66
2023/06/01 07:47:29;;;;;;;4.67;3.47;;;16.40;75.60;;;19.54;50.11;102118.19;5055121;28;20233;-68
2023/06/01 07:49:57;;;;;;;6.40;3.50;;;16.40;75.10;;;19.53;50.16;102119.25;5054859;28;20284;-67
2023/06/01 07:52:24;;;;;;;5.83;3.70;;;16.40;74.80;;;19.51;49.56;102123.97;5054695;28;20244;-67
2023/06/01 07:54:51;;;;;;;7.70;4.00;;;16.30;74.30;;;19.48;49.73;102119.84;5054383;28;20210;-65
2023/06/01 07:57:20;;;;;;;7.97;3.50;;;16.40;74.20;;;19.49;49.53;102120.69;5054497;28;20192;-66
2023/06/01 07:59:47;;;;;;;5.80;3.30;;;16.30;73.90;;;19.49;49.37;102118.00;5045823;28;20251;-66
2023/06/01 08:02:14;;;;;;;6.07;5.00;;;16.30;73.80;;;19.51;49.32;102115.94;5049286;28;20205;-67
2023/06/01 08:04:41;;;;;;;4.40;3.27;;;16.40;73.40;;;19.50;48.80;102128.47;5054410;28;20217;-67
2023/06/01 08:07:09;;;;;;;4.80;3.30;;;16.30;73.00;;;19.51;49.05;102123.97;5054629;28;20368;-66
2023/06/01 08:09:37;;;;;;;7.50;3.60;;;16.40;73.00;;;19.49;48.54;102123.34;5054343;28;20282;-67
2023/06/01 08:12:06;;;;;;;5.63;3.47;;;16.30;72.40;;;19.46;48.59;102121.06;5054358;28;20647;-67
2023/06/01 08:14:35;;;;;;;5.67;3.00;;;16.30;72.50;;;19.46;48.63;102118.41;5035273;28;20312;-67
2023/06/01 08:17:03;;;;;;;8.53;3.40;;;16.30;72.70;;;19.47;48.79;102117.34;5054284;28;20288;-67
2023/06/01 08:19:31;;;;;;;8.30;3.80;;;16.30;72.90;;;19.49;48.68;102121.47;5052930;28;20202;-67
2023/06/01 08:21:58;;;;;;;5.33;4.17;;;16.30;72.80;;;19.51;48.84;102119.47;5053984;28;20197;-68
2023/06/01 08:24:26;;;;;;;7.37;3.60;;;16.40;72.90;;;19.54;48.58;102113.69;5053777;28;20213;-66
2023/06/01 08:26:56;;;;;;;6.47;3.13;;;16.40;72.70;;;19.58;48.55;102109.63;5054011;28;20189;-67
2023/06/01 08:29:23;;;;;;;7.63;4.50;;;16.40;72.80;;;19.62;48.71;102112.69;5053621;28;20252;-66
2023/06/01 08:32:09;;;;;;;7.40;5.30;;;16.40;72.60;;;19.65;48.63;102108.81;5054467;28;20272;-72
2023/06/01 08:34:36;;;;;;;9.90;4.10;;;16.50;72.90;;;19.70;48.68;102115.22;5053735;28;20209;-66
2023/06/01 08:37:04;;;;;;;9.93;4.27;;;16.50;72.70;;;19.71;48.54;102108.81;5053884;28;20546;-68
2023/06/01 08:39:31;;;;;;;6.90;4.93;;;16.50;72.60;;;19.73;48.26;102104.09;5042951;28;20523;-67
2023/06/01 08:42:08;;;;;;;10.03;4.60;;;16.50;72.60;;;19.79;48.19;102100.63;5033676;28;20573;-66
2023/06/01 08:44:40;;;;;;;9.13;4.27;;;16.60;72.30;;;19.87;48.30;102100.44;5033264;28;20222;-67
2023/06/01 08:47:09;;;;;;;14.90;4.73;;;16.70;72.20;;;19.97;48.05;102108.91;5053541;28;20553;-68
2023/06/01 08:49:42;;;;;;;8.37;4.30;;;16.70;71.80;;;20.06;47.88;102112.22;5053122;28;20533;-67
2023/06/01 08:52:13;;;;;;;5.83;3.20;;;16.80;71.50;;;20.07;47.47;102098.63;5053634;28;20232;-67
2023/06/01 08:54:41;;;;;;;5.17;3.40;;;16.80;71.00;;;20.11;47.40;102105.22;5035362;28;20292;-67
2023/06/01 08:57:08;;;;;;;6.00;4.27;;;16.90;71.00;;;20.14;47.35;102096.78;5031959;28;20241;-67
2023/06/01 08:59:36;;;;;;;8.17;4.27;;;16.90;70.80;;;20.17;46.96;102104.41;5033832;28;20263;-66
2023/06/01 09:02:04;;;;;;;5.00;4.17;;;17.00;71.40;;;20.21;47.39;102100.31;5040579;28;20244;-66
2023/06/01 09:04:41;;;;;;;8.00;4.40;;;17.00;70.70;;;20.25;47.13;102104.22;5050374;28;20301;-66
2023/06/01 09:07:08;;;;;;;7.40;3.80;;;17.00;70.50;;;20.27;46.86;102108.56;5053923;28;20205;-66
2023/06/01 09:09:35;;;;;;;7.00;3.60;;;17.10;70.50;;;20.31;46.64;102099.09;5052541;28;20202;-66
2023/06/01 09:12:23;;;;;;;8.03;3.60;;;17.10;70.40;;;20.29;46.72;102096.63;5033270;28;20197;-67
2023/06/01 09:15:07;;;;;;;7.03;3.90;;;17.10;69.80;;;20.25;46.54;102104.22;5041373;28;20292;-67
2023/06/01 09:17:35;;;;;;;6.00;3.17;;;17.10;69.80;;;20.28;46.58;102105.69;5033026;28;20193;-67
2023/06/01 09:20:05;;;;;;;7.33;3.87;;;17.10;69.80;;;20.29;46.70;102101.16;5044898;28;20224;-66
2023/06/01 09:22:40;;;;;;;6.10;3.20;;;17.10;69.80;;;20.24;46.27;102099.94;5052725;28;20631;-66
2023/06/01 09:25:08;;;;;;;4.83;3.40;;;17.10;69.80;;;20.24;46.77;102099.09;5052700;28;20711;-66
2023/06/01 09:27:47;;;;;;;6.37;3.93;;;17.10;69.80;;;20.22;46.77;102103.84;5052483;28;20200;-66
2023/06/01 09:30:15;;;;;;;9.57;4.20;;;17.10;70.50;;;20.22;46.70;102106.50;5053117;28;20189;-66
2023/06/01 09:32:44;;;;;;;4.40;3.10;;;17.00;70.20;;;20.21;47.11;102102.97;5053090;28;20194;-66
2023/06/01 09:35:13;;;;;;;4.97;3.47;;;17.00;70.10;;;20.24;46.79;102102.59;5052643;28;20301;-67
2023/06/01 09:37:55;;;;;;;7.53;3.60;;;17.10;70.00;;;20.25;46.67;102095.41;5052847;28;20281;-66
2023/06/01 09:40:22;;;;;;;6.63;2.67;;;17.10;69.90;;;20.30;46.18;102090.25;5053252;28;20210;-67
2023/06/01 09:42:50;;;;;;;8.60;3.57;;;17.10;69.70;;;20.37;46.44;102092.94;5052025;28;20642;-66
2023/06/01 09:45:20;;;;;;;6.23;3.90;;;17.10;69.80;;;20.44;45.77;102093.78;5037537;28;20640;-67
2023/06/01 09:47:48;;;;;;;6.13;3.23;;;17.10;69.40;;;20.50;45.69;102092.94;5052403;28;20236;-66
2023/06/01 09:50:37;;;;;;;4.87;3.03;;;17.10;68.90;;;20.46;45.58;102099.72;5052880;28;20267;-67
2023/06/01 09:53:05;;;;;;;4.93;3.10;;;17.20;68.60;;;20.46;45.81;102092.53;5051691;28;20194;-66
2023/06/01 09:55:32;;;;;;;8.07;3.67;;;17.20;68.50;;;20.46;45.35;102091.72;5052945;28;20206;-67
2023/06/01 09:58:22;;;;;;;6.00;3.73;;;17.20;68.40;;;20.41;45.75;102086.16;5052181;28;20237;-67
2023/06/01 10:00:51;;;;;;;5.87;4.17;;;17.20;68.40;;;20.42;45.69;102090.47;5051163;28;20612;-67
2023/06/01 10:03:21;;;;;;;7.83;3.60;;;17.20;68.30;;;20.45;45.81;102090.03;5052327;28;20238;-67
2023/06/01 10:05:50;;;;;;;8.43;3.90;;;17.20;68.10;;;20.49;45.11;102091.31;5051699;28;20209;-65
2023/06/01 10:08:18;;;;;;;8.77;3.50;;;17.20;67.50;;;20.51;44.87;102089.25;5052517;28;20197;-68
2023/06/01 10:10:48;;;;;;;8.83;4.33;;;17.30;67.30;;;20.52;45.04;102085.50;5052243;28;20655;-68
2023/06/01 10:13:15;;;;;;;7.30;3.83;;;17.30;67.40;;;20.55;45.17;102096.66;5051370;28;20252;-67
2023/06/01 10:15:43;;;;;;;8.13;3.50;;;17.30;67.30;;;20.57;44.55;102088.41;5051834;28;20317;-67
2023/06/01 10:18:10;;;;;;;6.70;3.00;;;17.30;67.10;;;20.58;44.74;102082.84;5049229;28;20281;-66
2023/06/01 10:20:39;;;;;;;6.27;3.67;;;17.30;67.10;;;20.64;44.28;102081.19;5040192;28;20190;-66